createdAt,value
2017-12-11T00:00:59.711Z,979.21
2017-12-11T00:01:59.419Z,979.23
2017-12-11T00:02:59.436Z,979.26
2017-12-11T00:03:59.481Z,979.30
2017-12-11T00:04:59.512Z,979.26
2017-12-11T00:05:59.540Z,979.35
2017-12-11T00:06:59.857Z,979.36
2017-12-11T00:07:59.603Z,979.35
2017-12-11T00:08:59.679Z,979.36
2017-12-11T00:09:59.744Z,979.34
2017-12-11T00:10:59.950Z,979.45
2017-12-11T00:11:59.777Z,979.50
2017-12-11T00:13:00.225Z,979.53
2017-12-11T00:13:59.816Z,979.54
2017-12-11T00:14:59.808Z,979.63
2017-12-11T00:15:59.820Z,979.65
2017-12-11T00:16:59.869Z,979.63
2017-12-11T00:17:59.889Z,979.63
2017-12-11T00:19:00.206Z,979.72
2017-12-11T00:19:59.954Z,979.76
2017-12-11T00:20:59.981Z,979.80
2017-12-11T00:22:00.012Z,979.91
2017-12-11T00:23:00.032Z,979.91
2017-12-11T00:24:00.049Z,979.97
2017-12-11T00:27:00.469Z,979.99
2017-12-11T00:28:00.232Z,980.02
2017-12-11T00:29:00.353Z,980.03
2017-12-11T00:30:00.307Z,980.06
2017-12-11T00:33:00.612Z,980.07
2017-12-11T00:34:00.349Z,980.06
2017-12-11T00:35:00.383Z,980.09
2017-12-11T00:36:00.426Z,980.07
2017-12-11T00:37:00.446Z,980.12
2017-12-11T00:38:00.493Z,980.12
2017-12-11T00:39:00.808Z,980.15
2017-12-11T00:40:00.535Z,980.22
2017-12-11T00:41:00.546Z,980.28
2017-12-11T00:44:00.659Z,980.17
2017-12-11T00:45:00.691Z,980.25
2017-12-11T00:46:01.016Z,980.25
2017-12-11T00:47:00.740Z,980.23
2017-12-11T00:48:00.772Z,980.24
2017-12-11T00:49:00.808Z,980.24
2017-12-11T00:51:00.849Z,980.22
2017-12-11T00:52:00.885Z,980.13
2017-12-11T00:53:01.219Z,980.10
2017-12-11T00:54:00.932Z,980.07
2017-12-11T00:55:00.989Z,980.10
2017-12-11T00:56:00.991Z,980.03
2017-12-11T00:57:01.014Z,980.06
2017-12-11T01:00:01.405Z,979.94
2017-12-11T01:01:01.135Z,979.99
2017-12-11T01:02:01.170Z,980.00
2017-12-11T01:03:01.213Z,980.05
2017-12-11T01:05:01.258Z,980.08
2017-12-11T01:06:01.369Z,980.06
2017-12-11T01:07:01.611Z,979.94
2017-12-11T01:08:01.340Z,979.91
2017-12-11T01:09:01.423Z,979.87
2017-12-11T01:10:01.416Z,979.89
2017-12-11T01:11:01.455Z,979.89
2017-12-11T01:12:01.470Z,979.91
2017-12-11T01:13:01.507Z,979.94
2017-12-11T01:14:01.832Z,979.96
2017-12-11T01:15:01.563Z,979.87
2017-12-11T01:16:01.575Z,979.92
2017-12-11T01:17:01.607Z,979.95
2017-12-11T01:18:01.666Z,979.97
2017-12-11T01:19:01.684Z,980.08
2017-12-11T01:20:01.893Z,979.99
2017-12-11T01:21:02.030Z,979.91
2017-12-11T01:23:01.797Z,979.84
2017-12-11T01:24:01.828Z,979.86
2017-12-11T01:27:02.199Z,979.85
2017-12-11T01:28:01.945Z,979.85
2017-12-11T01:31:02.017Z,979.93
2017-12-11T01:32:02.057Z,979.92
2017-12-11T01:33:02.084Z,979.93
2017-12-11T01:34:02.424Z,979.94
2017-12-11T01:35:02.134Z,979.90
2017-12-11T01:36:02.231Z,979.93
2017-12-11T01:37:02.192Z,979.91
2017-12-11T01:38:02.220Z,979.91
2017-12-11T01:39:02.360Z,979.89
2017-12-11T01:40:02.282Z,979.90
2017-12-11T01:42:02.639Z,979.93
2017-12-11T01:43:02.384Z,979.91
2017-12-11T01:44:02.413Z,979.87
2017-12-11T01:46:02.475Z,979.91
2017-12-11T01:47:02.503Z,979.87
2017-12-11T01:48:02.531Z,979.85
2017-12-11T01:49:02.852Z,979.79
2017-12-11T01:50:02.579Z,979.78
2017-12-11T01:51:02.625Z,979.77
2017-12-11T01:52:02.636Z,979.80
2017-12-11T01:53:02.661Z,979.74
2017-12-11T01:54:02.691Z,979.78
2017-12-11T01:55:02.723Z,979.78
2017-12-11T01:56:03.066Z,979.77
2017-12-11T01:57:02.782Z,979.81
2017-12-11T01:58:02.806Z,979.82
2017-12-11T02:00:02.865Z,979.88
2017-12-11T02:01:02.915Z,979.96
2017-12-11T02:02:02.983Z,980.03
2017-12-11T02:03:03.255Z,980.14
2017-12-11T02:04:02.983Z,980.16
2017-12-11T02:05:03.019Z,980.16
2017-12-11T02:06:03.070Z,980.18
2017-12-11T02:07:03.071Z,980.28
2017-12-11T02:08:03.121Z,980.29
2017-12-11T02:09:03.131Z,980.33
2017-12-11T02:11:03.516Z,980.38
2017-12-11T02:12:03.220Z,980.42
2017-12-11T02:14:03.309Z,980.49
2017-12-11T02:15:03.397Z,980.49
2017-12-11T02:16:03.406Z,980.55
2017-12-11T02:17:03.395Z,980.61
2017-12-11T02:18:03.698Z,980.63
2017-12-11T02:19:03.426Z,980.63
2017-12-11T02:20:03.479Z,980.63
2017-12-11T02:21:03.494Z,980.65
2017-12-11T02:22:03.543Z,980.71
2017-12-11T02:23:03.594Z,980.68
2017-12-11T02:25:03.902Z,980.68
2017-12-11T02:26:03.661Z,980.77
2017-12-11T02:27:03.666Z,980.83
2017-12-11T02:28:03.689Z,980.90
2017-12-11T02:29:03.725Z,980.90
2017-12-11T02:30:03.749Z,980.91
2017-12-11T02:31:04.095Z,980.95
2017-12-11T02:32:03.925Z,980.95
2017-12-11T02:33:03.841Z,981.02
2017-12-11T02:34:03.929Z,981.01
2017-12-11T02:35:03.918Z,981.03
2017-12-11T02:36:03.933Z,981.04
2017-12-11T02:37:04.277Z,981.09
2017-12-11T02:38:03.987Z,981.10
2017-12-11T02:39:04.067Z,981.09
2017-12-11T02:41:04.077Z,981.12
2017-12-11T02:42:04.104Z,981.14
2017-12-11T02:43:04.450Z,981.20
2017-12-11T02:44:04.176Z,981.25
2017-12-11T02:45:04.189Z,981.30
2017-12-11T02:46:04.238Z,981.22
2017-12-11T02:47:04.268Z,981.17
2017-12-11T02:48:04.290Z,981.23
2017-12-11T02:49:04.625Z,981.24
2017-12-11T02:50:04.357Z,981.27
2017-12-11T02:51:04.386Z,981.32
2017-12-11T02:52:04.425Z,981.27
2017-12-11T02:53:04.431Z,981.28
2017-12-11T02:54:04.455Z,981.27
2017-12-11T02:55:04.803Z,981.34
2017-12-11T02:56:04.534Z,981.37
2017-12-11T02:58:04.574Z,981.49
2017-12-11T02:59:04.610Z,981.57
2017-12-11T03:00:04.752Z,981.65
2017-12-11T03:01:04.979Z,981.66
2017-12-11T03:02:04.706Z,981.68
2017-12-11T03:03:04.737Z,981.70
2017-12-11T03:04:04.771Z,981.68
2017-12-11T03:05:04.796Z,981.65
2017-12-11T03:06:04.864Z,981.66
2017-12-11T03:07:05.157Z,981.66
2017-12-11T03:08:04.890Z,981.68
2017-12-11T03:09:04.913Z,981.67
2017-12-11T03:11:05.179Z,981.61
2017-12-11T03:12:04.984Z,981.58
2017-12-11T03:13:05.316Z,981.54
2017-12-11T03:14:05.086Z,981.51
2017-12-11T03:15:05.091Z,981.50
2017-12-11T03:16:05.124Z,981.53
2017-12-11T03:17:05.151Z,981.49
2017-12-11T03:18:05.178Z,981.50
2017-12-11T03:19:05.516Z,981.47
2017-12-11T03:20:05.236Z,981.45
2017-12-11T03:21:05.252Z,981.40
2017-12-11T03:22:05.301Z,981.33
2017-12-11T03:23:05.308Z,981.27
2017-12-11T03:24:05.347Z,981.21
2017-12-11T03:25:05.695Z,981.18
2017-12-11T03:26:05.399Z,981.16
2017-12-11T03:27:05.437Z,981.13
2017-12-11T03:28:05.473Z,981.05
2017-12-11T03:29:05.634Z,980.99
2017-12-11T03:30:05.532Z,980.92
2017-12-11T03:31:05.853Z,980.90
2017-12-11T03:32:05.590Z,980.94
2017-12-11T03:33:05.608Z,980.86
2017-12-11T03:34:05.632Z,980.86
2017-12-11T03:35:05.793Z,980.86
2017-12-11T03:36:05.728Z,980.81
2017-12-11T03:37:06.072Z,980.77
2017-12-11T03:38:05.766Z,980.74
2017-12-11T03:39:05.795Z,980.73
2017-12-11T03:40:05.807Z,980.66
2017-12-11T03:41:05.836Z,980.61
2017-12-11T03:42:05.902Z,980.61
2017-12-11T03:43:05.969Z,980.60
2017-12-11T03:44:06.229Z,980.55
2017-12-11T03:45:05.959Z,980.58
2017-12-11T03:46:06.000Z,980.53
2017-12-11T03:47:06.045Z,980.51
2017-12-11T03:48:06.079Z,980.47
2017-12-11T03:49:06.072Z,980.45
2017-12-11T03:50:06.123Z,980.40
2017-12-11T03:51:06.434Z,980.43
2017-12-11T03:53:06.301Z,980.52
2017-12-11T03:54:06.310Z,980.49
2017-12-11T03:55:06.250Z,980.48
2017-12-11T03:56:06.295Z,980.42
2017-12-11T03:57:06.320Z,980.38
2017-12-11T03:58:06.638Z,980.36
2017-12-11T03:59:06.414Z,980.35
2017-12-11T04:00:06.510Z,980.31
2017-12-11T04:01:06.447Z,980.32
2017-12-11T04:02:06.531Z,980.32
2017-12-11T04:03:06.599Z,980.30
2017-12-11T04:04:06.522Z,980.28
2017-12-11T04:05:06.845Z,980.27
2017-12-11T04:06:06.580Z,980.24
2017-12-11T04:07:06.610Z,980.17
2017-12-11T04:08:06.632Z,980.18
2017-12-11T04:09:06.680Z,980.13
2017-12-11T04:10:06.759Z,980.11
2017-12-11T04:11:06.725Z,980.09
2017-12-11T04:12:07.112Z,980.09
2017-12-11T04:13:06.780Z,980.10
2017-12-11T04:14:06.819Z,980.08
2017-12-11T04:15:06.857Z,980.09
2017-12-11T04:16:06.883Z,980.10
2017-12-11T04:17:06.970Z,980.09
2017-12-11T04:18:06.930Z,980.04
2017-12-11T04:19:07.256Z,980.04
2017-12-11T04:20:07.003Z,979.87
2017-12-11T04:21:07.014Z,979.84
2017-12-11T04:22:07.093Z,979.84
2017-12-11T04:23:07.106Z,979.81
2017-12-11T04:24:07.104Z,979.75
2017-12-11T04:25:07.153Z,979.68
2017-12-11T04:26:07.481Z,979.71
2017-12-11T04:27:07.203Z,979.73
2017-12-11T04:28:07.275Z,979.70
2017-12-11T04:29:07.265Z,979.71
2017-12-11T04:30:07.280Z,979.70
2017-12-11T04:31:07.310Z,979.75
2017-12-11T04:32:07.390Z,979.76
2017-12-11T04:33:07.669Z,979.75
2017-12-11T04:34:07.398Z,979.74
2017-12-11T04:35:07.444Z,979.78
2017-12-11T04:36:07.480Z,979.75
2017-12-11T04:37:07.539Z,979.81
2017-12-11T04:38:07.724Z,979.84
2017-12-11T04:39:07.545Z,979.85
2017-12-11T04:40:07.879Z,979.87
2017-12-11T04:41:07.607Z,979.89
2017-12-11T04:42:07.651Z,979.94
2017-12-11T04:43:07.673Z,980.01
2017-12-11T04:44:07.692Z,980.03
2017-12-11T04:45:07.737Z,980.06
2017-12-11T04:46:07.819Z,980.04
2017-12-11T04:47:08.101Z,980.00
2017-12-11T04:48:07.823Z,980.03
2017-12-11T04:49:07.862Z,979.97
2017-12-11T04:50:07.885Z,979.98
2017-12-11T04:51:07.897Z,979.95
2017-12-11T04:52:07.929Z,979.96
2017-12-11T04:53:07.976Z,979.92
2017-12-11T04:54:08.299Z,979.91
2017-12-11T04:55:08.018Z,979.88
2017-12-11T04:56:08.062Z,979.81
2017-12-11T04:57:08.099Z,979.80
2017-12-11T04:58:08.143Z,979.76
2017-12-11T05:01:08.511Z,979.67
2017-12-11T05:02:08.223Z,979.64
2017-12-11T05:03:08.320Z,979.61
2017-12-11T05:04:08.288Z,979.57
2017-12-11T05:05:08.313Z,979.52
2017-12-11T05:06:08.355Z,979.52
2017-12-11T05:07:08.398Z,979.49
2017-12-11T05:08:08.405Z,979.47
2017-12-11T05:09:08.451Z,979.43
2017-12-11T05:10:08.459Z,979.41
2017-12-11T05:11:08.556Z,979.39
2017-12-11T05:12:08.738Z,979.40
2017-12-11T05:13:08.898Z,979.39
2017-12-11T05:14:08.967Z,979.38
2017-12-11T05:15:08.603Z,979.36
2017-12-11T05:16:08.653Z,979.31
2017-12-11T05:17:08.683Z,979.30
2017-12-11T05:18:08.698Z,979.26
2017-12-11T05:19:09.025Z,979.21
2017-12-11T05:21:08.780Z,979.21
2017-12-11T05:22:08.845Z,979.12
2017-12-11T05:24:08.896Z,979.12
2017-12-11T05:25:08.921Z,979.08
2017-12-11T05:26:09.247Z,979.10
2017-12-11T05:27:08.976Z,979.07
2017-12-11T05:28:08.988Z,979.04
2017-12-11T05:29:09.035Z,979.03
2017-12-11T05:30:09.062Z,979.00
2017-12-11T05:31:09.094Z,978.94
2017-12-11T05:32:09.430Z,978.95
2017-12-11T05:33:09.154Z,978.96
2017-12-11T05:34:09.184Z,979.02
2017-12-11T05:35:09.223Z,979.00
2017-12-11T05:36:09.238Z,979.03
2017-12-11T05:37:09.266Z,979.06
2017-12-11T05:38:09.587Z,979.04
2017-12-11T05:39:09.364Z,979.00
2017-12-11T05:40:09.361Z,979.01
2017-12-11T05:41:09.378Z,979.01
2017-12-11T05:43:09.436Z,979.07
2017-12-11T05:44:09.478Z,979.07
2017-12-11T05:45:09.786Z,979.06
2017-12-11T05:46:09.523Z,979.07
2017-12-11T05:47:09.545Z,979.04
2017-12-11T05:48:09.593Z,979.01
2017-12-11T05:49:09.606Z,979.03
2017-12-11T05:50:09.636Z,979.00
2017-12-11T05:51:10.001Z,978.95
2017-12-11T05:52:09.735Z,978.94
2017-12-11T05:53:09.790Z,978.94
2017-12-11T05:54:09.952Z,978.95
2017-12-11T05:55:09.809Z,978.98
2017-12-11T05:56:09.810Z,978.99
2017-12-11T05:57:10.181Z,978.98
2017-12-11T05:58:09.872Z,978.94
2017-12-11T05:59:09.900Z,978.94
2017-12-11T06:00:09.929Z,978.94
2017-12-11T06:01:09.980Z,978.92
2017-12-11T06:02:09.990Z,978.95
2017-12-11T06:03:10.386Z,978.94
2017-12-11T06:04:10.088Z,978.94
2017-12-11T06:05:10.231Z,978.88
2017-12-11T06:06:10.119Z,978.81
2017-12-11T06:07:10.134Z,978.78
2017-12-11T06:08:10.166Z,978.76
2017-12-11T06:09:10.505Z,978.65
2017-12-11T06:10:10.265Z,978.63
2017-12-11T06:11:11.451Z,978.62
2017-12-11T06:12:10.300Z,978.55
2017-12-11T06:14:10.350Z,978.55
2017-12-11T06:15:10.379Z,978.46
2017-12-11T06:16:10.705Z,978.45
2017-12-11T06:17:10.449Z,978.38
2017-12-11T06:18:10.548Z,978.35
2017-12-11T06:19:10.511Z,978.29
2017-12-11T06:20:10.534Z,978.30
2017-12-11T06:21:10.619Z,978.24
2017-12-11T06:22:10.625Z,978.23
2017-12-11T06:23:10.910Z,978.22
2017-12-11T06:24:10.636Z,978.18
2017-12-11T06:29:11.097Z,978.04
2017-12-11T06:30:10.821Z,978.06
2017-12-11T06:31:10.879Z,978.01
2017-12-11T06:32:10.885Z,978.02
2017-12-11T06:33:10.890Z,977.97
2017-12-11T06:34:10.936Z,978.06
2017-12-11T06:35:10.961Z,978.06
2017-12-11T06:36:11.235Z,978.06
2017-12-11T06:37:11.008Z,978.07
2017-12-11T06:38:11.064Z,978.07
2017-12-11T06:39:11.070Z,978.06
2017-12-11T06:40:11.135Z,978.10
2017-12-11T06:41:11.124Z,978.15
2017-12-11T06:42:11.173Z,978.21
2017-12-11T06:43:11.519Z,978.27
2017-12-11T06:44:11.239Z,978.25
2017-12-11T06:45:11.260Z,978.26
2017-12-11T06:46:11.304Z,978.30
2017-12-11T06:47:11.328Z,978.28
2017-12-11T06:49:11.661Z,978.29
2017-12-11T06:50:11.467Z,978.33
2017-12-11T06:51:11.424Z,978.37
2017-12-11T06:52:11.451Z,978.36
2017-12-11T06:53:11.511Z,978.36
2017-12-11T06:54:11.508Z,978.39
2017-12-11T06:55:11.562Z,978.42
2017-12-11T06:56:11.876Z,978.46
2017-12-11T06:57:11.619Z,978.45
2017-12-11T06:58:11.655Z,978.45
2017-12-11T06:59:11.726Z,978.49
2017-12-11T07:00:11.760Z,978.54
2017-12-11T07:01:11.733Z,978.54
2017-12-11T07:02:11.747Z,978.58
2017-12-11T07:04:12.122Z,978.60
2017-12-11T07:05:11.936Z,978.60
2017-12-11T07:06:11.866Z,978.61
2017-12-11T07:07:11.928Z,978.60
2017-12-11T07:08:11.920Z,978.63
2017-12-11T07:09:11.951Z,978.71
2017-12-11T07:10:12.002Z,978.72
2017-12-11T07:11:12.380Z,978.68
2017-12-11T07:12:12.088Z,978.70
2017-12-11T07:13:12.127Z,978.68
2017-12-11T07:14:12.132Z,978.69
2017-12-11T07:15:12.149Z,978.71
2017-12-11T07:16:12.160Z,978.71
2017-12-11T07:17:12.209Z,978.67
2017-12-11T07:18:12.559Z,978.64
2017-12-11T07:19:12.286Z,978.62
2017-12-11T07:20:12.294Z,978.57
2017-12-11T07:21:12.306Z,978.59
2017-12-11T07:22:12.755Z,978.51
2017-12-11T07:23:12.367Z,978.49
2017-12-11T07:24:12.410Z,978.45
2017-12-11T07:25:12.747Z,978.38
2017-12-11T07:26:12.472Z,978.40
2017-12-11T07:27:12.485Z,978.38
2017-12-11T07:28:12.513Z,978.35
2017-12-11T07:29:12.579Z,978.36
2017-12-11T07:30:12.640Z,978.32
2017-12-11T07:31:12.920Z,978.29
2017-12-11T07:32:12.632Z,978.33
2017-12-11T07:33:12.660Z,978.26
2017-12-11T07:34:12.781Z,978.18
2017-12-11T07:35:12.718Z,978.14
2017-12-11T07:36:12.749Z,978.07
2017-12-11T07:37:13.125Z,978.00
2017-12-11T07:38:12.809Z,978.00
2017-12-11T07:39:12.858Z,977.95
2017-12-11T07:40:12.896Z,977.94
2017-12-11T07:41:12.896Z,977.84
2017-12-11T07:42:12.929Z,977.78
2017-12-11T07:43:13.261Z,977.76
2017-12-11T07:44:13.003Z,977.73
2017-12-11T07:45:13.032Z,977.70
2017-12-11T07:46:13.042Z,977.69
2017-12-11T07:47:13.094Z,977.63
2017-12-11T07:48:13.127Z,977.68
2017-12-11T07:49:13.383Z,977.67
2017-12-11T07:50:13.163Z,977.63
2017-12-11T07:51:13.195Z,977.60
2017-12-11T07:52:13.240Z,977.59
2017-12-11T07:53:13.253Z,977.63
2017-12-11T07:54:13.353Z,977.63
2017-12-11T07:55:13.569Z,977.70
2017-12-11T07:56:13.340Z,977.70
2017-12-11T07:57:14.327Z,977.64
2017-12-11T07:58:13.403Z,977.63
2017-12-11T07:59:13.431Z,977.62
2017-12-11T08:00:13.456Z,977.64
2017-12-11T08:01:13.736Z,977.62
2017-12-11T08:02:13.535Z,977.60
2017-12-11T08:03:13.548Z,977.61
2017-12-11T08:04:13.595Z,977.59
2017-12-11T08:05:13.628Z,977.62
2017-12-11T08:06:13.651Z,977.64
2017-12-11T08:07:13.934Z,977.63
2017-12-11T08:08:13.695Z,977.60
2017-12-11T08:09:13.741Z,977.56
2017-12-11T08:10:13.771Z,977.56
2017-12-11T08:11:13.791Z,977.57
2017-12-11T08:12:13.829Z,977.59
2017-12-11T08:13:14.090Z,977.66
2017-12-11T08:14:13.871Z,977.73
2017-12-11T08:15:13.919Z,977.75
2017-12-11T08:16:13.945Z,977.79
2017-12-11T08:17:13.957Z,977.80
2017-12-11T08:18:13.988Z,977.83
2017-12-11T08:19:14.319Z,977.82
2017-12-11T08:20:14.066Z,977.71
2017-12-11T08:21:14.096Z,977.69
2017-12-11T08:22:14.119Z,977.67
2017-12-11T08:23:14.161Z,977.62
2017-12-11T08:24:14.173Z,977.57
2017-12-11T08:25:14.546Z,977.55
2017-12-11T08:26:14.247Z,977.46
2017-12-11T08:27:14.255Z,977.41
2017-12-11T08:28:14.286Z,977.39
2017-12-11T08:29:14.344Z,977.35
2017-12-11T08:30:14.342Z,977.31
2017-12-11T08:31:15.625Z,977.30
2017-12-11T08:32:14.425Z,977.27
2017-12-11T08:33:14.434Z,977.31
2017-12-11T08:34:14.481Z,977.38
2017-12-11T08:35:14.512Z,977.39
2017-12-11T08:36:14.578Z,977.40
2017-12-11T08:37:14.861Z,977.34
2017-12-11T08:38:14.598Z,977.32
2017-12-11T08:39:14.621Z,977.41
2017-12-11T08:40:14.640Z,977.44
2017-12-11T08:41:14.678Z,977.51
2017-12-11T08:42:14.722Z,977.48
2017-12-11T08:44:15.024Z,977.54
2017-12-11T08:45:14.787Z,977.62
2017-12-11T08:46:14.866Z,977.51
2017-12-11T08:47:14.848Z,977.39
2017-12-11T08:48:14.879Z,977.34
2017-12-11T08:49:14.938Z,977.32
2017-12-11T08:50:14.955Z,977.37
2017-12-11T08:51:15.213Z,977.39
2017-12-11T08:53:15.038Z,977.27
2017-12-11T08:54:15.076Z,977.22
2017-12-11T08:55:15.083Z,977.19
2017-12-11T08:56:15.132Z,977.22
2017-12-11T08:57:15.158Z,977.20
2017-12-11T08:58:15.422Z,977.17
2017-12-11T08:59:15.203Z,977.19
2017-12-11T09:00:15.228Z,977.17
2017-12-11T09:01:15.275Z,977.19
2017-12-11T09:02:15.305Z,977.18
2017-12-11T09:03:15.406Z,977.14
2017-12-11T09:04:15.346Z,977.05
2017-12-11T09:05:15.675Z,977.04
2017-12-11T09:06:15.424Z,977.00
2017-12-11T09:07:15.437Z,976.98
2017-12-11T09:08:15.718Z,976.98
2017-12-11T09:09:15.510Z,976.97
2017-12-11T09:10:15.540Z,976.94
2017-12-11T09:12:15.858Z,976.82
2017-12-11T09:13:15.660Z,976.74
2017-12-11T09:14:15.647Z,976.75
2017-12-11T09:16:15.717Z,976.80
2017-12-11T09:17:15.749Z,976.79
2017-12-11T09:18:15.759Z,976.73
2017-12-11T09:19:15.802Z,976.69
2017-12-11T09:20:15.836Z,976.64
2017-12-11T09:21:15.871Z,976.61
2017-12-11T09:22:15.896Z,976.63
2017-12-11T09:23:15.908Z,976.62
2017-12-11T09:24:15.934Z,976.57
2017-12-11T09:25:16.231Z,976.56
2017-12-11T09:26:15.995Z,976.56
2017-12-11T09:27:16.041Z,976.55
2017-12-11T09:28:16.062Z,976.60
2017-12-11T09:29:16.094Z,976.51
2017-12-11T09:30:16.911Z,976.48
2017-12-11T09:31:16.160Z,976.39
2017-12-11T09:32:16.500Z,976.32
2017-12-11T09:34:16.246Z,976.34
2017-12-11T09:35:16.277Z,976.34
2017-12-11T09:36:16.320Z,976.38
2017-12-11T09:37:16.322Z,976.41
2017-12-11T09:38:16.366Z,976.34
2017-12-11T09:39:16.694Z,976.34
2017-12-11T09:40:16.421Z,976.30
2017-12-11T09:41:16.452Z,976.27
2017-12-11T09:43:16.495Z,976.14
2017-12-11T09:44:16.528Z,976.07
2017-12-11T09:45:16.556Z,976.00
2017-12-11T09:46:16.851Z,975.97
2017-12-11T09:47:16.635Z,975.85
2017-12-11T09:48:16.662Z,975.80
2017-12-11T09:49:16.688Z,975.73
2017-12-11T09:50:16.705Z,975.73
2017-12-11T09:51:16.750Z,975.69
2017-12-11T09:52:16.779Z,975.59
2017-12-11T09:53:17.121Z,975.53
2017-12-11T09:54:16.848Z,975.50
2017-12-11T09:55:16.862Z,975.50
2017-12-11T09:56:16.895Z,975.50
2017-12-11T09:57:16.932Z,975.50
2017-12-11T09:58:16.942Z,975.47
2017-12-11T09:59:16.987Z,975.38
2017-12-11T10:00:17.314Z,975.39
2017-12-11T10:01:17.051Z,975.40
2017-12-11T10:02:17.056Z,975.42
2017-12-11T10:03:17.087Z,975.33
2017-12-11T10:04:17.128Z,975.35
2017-12-11T10:05:17.163Z,975.29
2017-12-11T10:06:17.478Z,975.28
2017-12-11T10:07:17.208Z,975.24
2017-12-11T10:08:17.234Z,975.15
2017-12-11T10:09:17.263Z,975.11
2017-12-11T10:10:17.295Z,975.03
2017-12-11T10:11:17.343Z,975.00
2017-12-11T10:12:17.674Z,974.91
2017-12-11T10:13:17.419Z,974.85
2017-12-11T10:14:17.425Z,974.83
2017-12-11T10:15:17.440Z,974.85
2017-12-11T10:16:17.468Z,974.84
2017-12-11T10:17:17.584Z,974.83
2017-12-11T10:19:17.888Z,974.82
2017-12-11T10:20:17.586Z,974.72
2017-12-11T10:21:17.628Z,974.77
2017-12-11T10:22:17.650Z,974.81
2017-12-11T10:23:17.697Z,974.84
2017-12-11T10:24:17.712Z,974.80
2017-12-11T10:25:18.005Z,974.77
2017-12-11T10:26:17.784Z,974.75
2017-12-11T10:27:17.799Z,974.80
2017-12-11T10:28:17.827Z,974.80
2017-12-11T10:29:17.949Z,974.72
2017-12-11T10:30:18.001Z,974.69
2017-12-11T10:31:18.228Z,974.64
2017-12-11T10:32:17.962Z,974.58
2017-12-11T10:33:17.985Z,974.65
2017-12-11T10:34:18.020Z,974.69
2017-12-11T10:35:18.081Z,974.74
2017-12-11T10:36:18.155Z,974.74
2017-12-11T10:37:18.412Z,974.60
2017-12-11T10:38:18.146Z,974.57
2017-12-11T10:39:18.179Z,974.58
2017-12-11T10:40:18.197Z,974.58
2017-12-11T10:41:18.210Z,974.62
2017-12-11T10:42:18.242Z,974.69
2017-12-11T10:43:18.517Z,974.77
2017-12-11T10:46:18.375Z,974.65
2017-12-11T10:47:18.399Z,974.67
2017-12-11T10:48:18.432Z,974.63
2017-12-11T10:49:18.460Z,974.58
2017-12-11T10:50:18.476Z,974.53
2017-12-11T10:51:18.504Z,974.48
2017-12-11T10:52:18.582Z,974.48
2017-12-11T10:54:18.893Z,974.37
2017-12-11T10:55:18.639Z,974.39
2017-12-11T10:56:18.717Z,974.40
2017-12-11T10:57:18.702Z,974.43
2017-12-11T10:58:18.706Z,974.46
2017-12-11T10:59:18.739Z,974.45
2017-12-11T11:00:19.021Z,974.39
2017-12-11T11:01:18.813Z,974.59
2017-12-11T11:03:18.864Z,974.68
2017-12-11T11:04:18.885Z,974.65
2017-12-11T11:05:18.915Z,974.57
2017-12-11T11:06:19.216Z,974.48
2017-12-11T11:07:19.008Z,974.39
2017-12-11T11:10:19.081Z,973.92
2017-12-11T11:12:19.441Z,974.26
2017-12-11T11:14:19.200Z,974.39
2017-12-11T11:15:19.235Z,974.28
2017-12-11T11:16:19.239Z,974.28
2017-12-11T11:17:19.306Z,974.33
2017-12-11T11:18:19.315Z,974.34
2017-12-11T11:19:19.631Z,974.31
2017-12-11T11:20:19.357Z,974.19
2017-12-11T11:21:19.402Z,974.13
2017-12-11T11:22:19.443Z,974.11
2017-12-11T11:23:19.480Z,974.08
2017-12-11T11:24:19.508Z,974.02
2017-12-11T11:25:19.524Z,973.90
2017-12-11T11:26:19.785Z,973.87
2017-12-11T11:27:19.582Z,973.92
2017-12-11T11:28:19.623Z,973.96
2017-12-11T11:29:19.627Z,974.02
2017-12-11T11:30:19.656Z,974.03
2017-12-11T11:31:19.684Z,974.09
2017-12-11T11:32:19.732Z,974.09
2017-12-11T11:33:20.064Z,974.15
2017-12-11T11:34:19.791Z,974.11
2017-12-11T11:36:19.846Z,974.21
2017-12-11T11:37:19.880Z,974.13
2017-12-11T11:38:19.891Z,973.98
2017-12-11T11:39:19.930Z,973.96
2017-12-11T11:40:20.274Z,973.91
2017-12-11T11:41:19.978Z,973.82
2017-12-11T11:42:20.026Z,973.76
2017-12-11T11:43:20.043Z,973.79
2017-12-11T11:44:20.098Z,973.80
2017-12-11T11:45:20.101Z,973.84
2017-12-11T11:47:20.463Z,973.98
2017-12-11T11:48:20.205Z,973.99
2017-12-11T11:49:20.237Z,973.97
2017-12-11T11:50:20.245Z,974.00
2017-12-11T11:51:20.283Z,973.97
2017-12-11T11:52:20.332Z,973.91
2017-12-11T11:53:20.365Z,973.86
2017-12-11T11:54:20.632Z,973.81
2017-12-11T11:55:20.417Z,973.77
2017-12-11T11:56:20.444Z,973.72
2017-12-11T11:57:20.458Z,973.77
2017-12-11T11:58:20.491Z,973.78
2017-12-11T11:59:20.514Z,973.77
2017-12-11T12:00:20.544Z,973.73
2017-12-11T12:01:21.019Z,973.72
2017-12-11T12:02:20.601Z,973.71
2017-12-11T12:03:20.656Z,973.64
2017-12-11T12:04:20.661Z,973.59
2017-12-11T12:05:20.690Z,973.52
2017-12-11T12:06:20.738Z,973.45
2017-12-11T12:07:20.754Z,973.43
2017-12-11T12:08:21.047Z,973.37
2017-12-11T12:09:20.824Z,973.41
2017-12-11T12:10:20.843Z,973.35
2017-12-11T12:12:20.902Z,972.99
2017-12-11T12:13:20.946Z,972.75
2017-12-11T12:14:20.957Z,972.57
2017-12-11T12:15:21.250Z,972.41
2017-12-11T12:16:21.026Z,972.16
2017-12-11T12:17:21.049Z,972.02
2017-12-11T12:18:21.094Z,972.05
2017-12-11T12:19:21.112Z,972.14
2017-12-11T12:20:21.139Z,972.20
2017-12-11T12:21:21.192Z,972.32
2017-12-11T12:23:21.226Z,972.48
2017-12-11T12:24:21.272Z,972.48
2017-12-11T12:25:21.282Z,972.61
2017-12-11T12:26:21.339Z,972.86
2017-12-11T12:27:21.359Z,973.07
2017-12-11T12:28:21.388Z,973.24
2017-12-11T12:29:21.816Z,973.25
2017-12-11T12:30:21.436Z,973.19
2017-12-11T12:31:21.474Z,973.03
2017-12-11T12:32:21.507Z,972.82
2017-12-11T12:33:21.522Z,972.69
2017-12-11T12:34:21.550Z,972.65
2017-12-11T12:35:21.900Z,972.74
2017-12-11T12:36:21.625Z,972.88
2017-12-11T12:37:21.640Z,972.96
2017-12-11T12:38:21.714Z,973.01
2017-12-11T12:39:21.722Z,972.92
2017-12-11T12:40:21.730Z,972.87
2017-12-11T12:41:22.008Z,972.78
2017-12-11T12:42:21.786Z,972.78
2017-12-11T12:43:21.840Z,972.74
2017-12-11T12:44:21.896Z,972.72
2017-12-11T12:45:21.897Z,972.68
2017-12-11T12:46:21.904Z,972.63
2017-12-11T12:47:22.214Z,972.63
2017-12-11T12:48:21.985Z,972.69
2017-12-11T12:49:22.011Z,972.73
2017-12-11T12:50:22.046Z,972.75
2017-12-11T12:51:22.080Z,972.62
2017-12-11T12:52:22.103Z,972.49
2017-12-11T12:53:22.420Z,972.40
2017-12-11T12:54:22.149Z,972.29
2017-12-11T12:55:22.283Z,972.13
2017-12-11T12:56:22.226Z,972.03
2017-12-11T12:57:22.231Z,972.00
2017-12-11T12:58:22.277Z,972.04
2017-12-11T12:59:22.609Z,972.11
2017-12-11T13:01:22.420Z,972.11
2017-12-11T13:02:22.388Z,972.15
2017-12-11T13:03:22.414Z,972.12
2017-12-11T13:04:22.456Z,972.17
2017-12-11T13:05:22.731Z,972.30
2017-12-11T13:06:22.505Z,972.49
2017-12-11T13:07:22.544Z,972.55
2017-12-11T13:08:22.607Z,972.51
2017-12-11T13:09:22.603Z,972.49
2017-12-11T13:10:22.616Z,972.60
2017-12-11T13:11:23.295Z,972.63
2017-12-11T13:12:22.680Z,972.72
2017-12-11T13:13:22.746Z,972.68
2017-12-11T13:14:22.752Z,972.67
2017-12-11T13:15:22.790Z,972.64
2017-12-11T13:17:23.154Z,972.64
2017-12-11T13:18:22.857Z,972.63
2017-12-11T13:19:22.911Z,972.62
2017-12-11T13:20:22.927Z,972.60
2017-12-11T13:21:22.968Z,972.57
2017-12-11T13:23:23.270Z,972.46
2017-12-11T13:25:23.067Z,972.49
2017-12-11T13:26:23.112Z,972.52
2017-12-11T13:28:23.152Z,972.42
2017-12-11T13:29:23.199Z,972.46
2017-12-11T13:30:23.514Z,972.54